sensor_id;sensor_type;location;lat;lon;timestamp;temperature;humidity
23475;DHT22;11910;52.086;21.066;2023-01-09T00:00:24;4.40;99.90
23475;DHT22;11910;52.086;21.066;2023-01-09T00:02:50;4.40;99.90
23475;DHT22;11910;52.086;21.066;2023-01-09T00:05:17;4.40;99.90
23475;DHT22;11910;52.086;21.066;2023-01-09T00:07:42;4.40;99.90
23475;DHT22;11910;52.086;21.066;2023-01-09T00:10:09;4.40;99.90
23475;DHT22;11910;52.086;21.066;2023-01-09T00:12:35;4.40;99.90
23475;DHT22;11910;52.086;21.066;2023-01-09T00:15:02;4.30;99.90
23475;DHT22;11910;52.086;21.066;2023-01-09T00:17:28;4.40;99.90
23475;DHT22;11910;52.086;21.066;2023-01-09T00:19:54;4.40;99.90
23475;DHT22;11910;52.086;21.066;2023-01-09T00:22:19;4.40;99.90
23475;DHT22;11910;52.086;21.066;2023-01-09T00:24:45;4.40;99.90
23475;DHT22;11910;52.086;21.066;2023-01-09T00:27:10;4.40;99.90
23475;DHT22;11910;52.086;21.066;2023-01-09T00:29:39;4.40;99.90
23475;DHT22;11910;52.086;21.066;2023-01-09T00:32:07;4.40;99.90
23475;DHT22;11910;52.086;21.066;2023-01-09T00:34:35;4.40;99.90
23475;DHT22;11910;52.086;21.066;2023-01-09T00:37:03;4.50;99.90
23475;DHT22;11910;52.086;21.066;2023-01-09T00:39:28;4.50;99.90
23475;DHT22;11910;52.086;21.066;2023-01-09T00:41:55;4.50;99.90
23475;DHT22;11910;52.086;21.066;2023-01-09T00:44:34;4.40;99.90
23475;DHT22;11910;52.086;21.066;2023-01-09T00:47:06;4.40;99.90
23475;DHT22;11910;52.086;21.066;2023-01-09T00:49:34;4.40;99.90
23475;DHT22;11910;52.086;21.066;2023-01-09T00:52:02;4.40;99.90
23475;DHT22;11910;52.086;21.066;2023-01-09T00:54:29;4.40;99.90
23475;DHT22;11910;52.086;21.066;2023-01-09T00:56:55;4.40;99.90
23475;DHT22;11910;52.086;21.066;2023-01-09T00:59:21;4.40;99.90
23475;DHT22;11910;52.086;21.066;2023-01-09T01:01:47;4.40;99.90
23475;DHT22;11910;52.086;21.066;2023-01-09T01:04:12;4.50;99.90
23475;DHT22;11910;52.086;21.066;2023-01-09T01:06:57;4.40;99.90
23475;DHT22;11910;52.086;21.066;2023-01-09T01:09:41;4.40;99.90
23475;DHT22;11910;52.086;21.066;2023-01-09T01:12:06;4.40;99.90
23475;DHT22;11910;52.086;21.066;2023-01-09T01:14:34;4.40;99.90
23475;DHT22;11910;52.086;21.066;2023-01-09T01:17:00;4.40;99.90
23475;DHT22;11910;52.086;21.066;2023-01-09T01:19:25;4.40;99.90
23475;DHT22;11910;52.086;21.066;2023-01-09T01:21:51;4.40;99.90
23475;DHT22;11910;52.086;21.066;2023-01-09T01:24:16;4.40;99.90
23475;DHT22;11910;52.086;21.066;2023-01-09T01:26:45;4.40;99.90
23475;DHT22;11910;52.086;21.066;2023-01-09T01:29:11;4.40;99.90
23475;DHT22;11910;52.086;21.066;2023-01-09T01:31:37;4.40;99.90
23475;DHT22;11910;52.086;21.066;2023-01-09T01:34:02;4.40;99.90
23475;DHT22;11910;52.086;21.066;2023-01-09T01:36:28;4.40;99.90
23475;DHT22;11910;52.086;21.066;2023-01-09T01:38:54;4.30;99.90
23475;DHT22;11910;52.086;21.066;2023-01-09T01:41:20;4.40;99.90
23475;DHT22;11910;52.086;21.066;2023-01-09T01:43:58;4.40;99.90
23475;DHT22;11910;52.086;21.066;2023-01-09T01:46:24;4.40;99.90
23475;DHT22;11910;52.086;21.066;2023-01-09T01:49:03;4.40;99.90
23475;DHT22;11910;52.086;21.066;2023-01-09T01:51:33;4.40;99.90
23475;DHT22;11910;52.086;21.066;2023-01-09T01:54:04;4.40;99.90
23475;DHT22;11910;52.086;21.066;2023-01-09T01:56:41;4.40;99.90
23475;DHT22;11910;52.086;21.066;2023-01-09T02:01:51;4.40;99.90
23475;DHT22;11910;52.086;21.066;2023-01-09T02:04:17;4.40;99.90
23475;DHT22;11910;52.086;21.066;2023-01-09T02:06:43;4.40;99.90
23475;DHT22;11910;52.086;21.066;2023-01-09T02:09:12;4.40;99.90
23475;DHT22;11910;52.086;21.066;2023-01-09T02:11:47;4.40;99.90
23475;DHT22;11910;52.086;21.066;2023-01-09T02:14:14;4.50;99.90
23475;DHT22;11910;52.086;21.066;2023-01-09T02:17:02;4.40;99.90
23475;DHT22;11910;52.086;21.066;2023-01-09T02:23:08;4.40;99.90
23475;DHT22;11910;52.086;21.066;2023-01-09T02:31:34;4.50;99.90
23475;DHT22;11910;52.086;21.066;2023-01-09T02:34:13;4.50;99.90
23475;DHT22;11910;52.086;21.066;2023-01-09T02:40:02;4.50;99.90
23475;DHT22;11910;52.086;21.066;2023-01-09T02:42:31;4.50;99.90
23475;DHT22;11910;52.086;21.066;2023-01-09T02:44:57;4.50;99.90
23475;DHT22;11910;52.086;21.066;2023-01-09T02:49:55;4.50;99.90
23475;DHT22;11910;52.086;21.066;2023-01-09T03:01:20;4.60;99.90
23475;DHT22;11910;52.086;21.066;2023-01-09T03:04:02;4.60;99.90
23475;DHT22;11910;52.086;21.066;2023-01-09T03:09:14;4.60;99.90
23475;DHT22;11910;52.086;21.066;2023-01-09T03:11:45;4.60;99.90
23475;DHT22;11910;52.086;21.066;2023-01-09T03:14:15;4.60;99.90
23475;DHT22;11910;52.086;21.066;2023-01-09T03:16:45;4.60;99.90
23475;DHT22;11910;52.086;21.066;2023-01-09T03:19:16;4.60;99.90
23475;DHT22;11910;52.086;21.066;2023-01-09T03:21:43;4.60;99.90
23475;DHT22;11910;52.086;21.066;2023-01-09T03:24:10;4.60;99.90
23475;DHT22;11910;52.086;21.066;2023-01-09T03:26:35;4.70;99.90
23475;DHT22;11910;52.086;21.066;2023-01-09T03:29:01;4.60;99.90
23475;DHT22;11910;52.086;21.066;2023-01-09T03:31:27;4.70;99.90
23475;DHT22;11910;52.086;21.066;2023-01-09T03:33:53;4.60;99.90
23475;DHT22;11910;52.086;21.066;2023-01-09T03:36:20;4.60;99.90
23475;DHT22;11910;52.086;21.066;2023-01-09T03:38:45;4.60;99.90
23475;DHT22;11910;52.086;21.066;2023-01-09T03:41:11;4.70;99.90
23475;DHT22;11910;52.086;21.066;2023-01-09T03:43:36;4.70;99.90
23475;DHT22;11910;52.086;21.066;2023-01-09T03:46:02;4.70;99.90
23475;DHT22;11910;52.086;21.066;2023-01-09T03:48:28;4.70;99.90
23475;DHT22;11910;52.086;21.066;2023-01-09T03:50:55;4.70;99.90
23475;DHT22;11910;52.086;21.066;2023-01-09T03:53:22;4.70;99.90
23475;DHT22;11910;52.086;21.066;2023-01-09T03:55:50;4.70;99.90
23475;DHT22;11910;52.086;21.066;2023-01-09T03:58:16;4.70;99.90
23475;DHT22;11910;52.086;21.066;2023-01-09T04:00:43;4.70;99.90
23475;DHT22;11910;52.086;21.066;2023-01-09T04:03:11;4.60;99.90
23475;DHT22;11910;52.086;21.066;2023-01-09T04:05:36;4.70;99.90
23475;DHT22;11910;52.086;21.066;2023-01-09T04:08:02;4.60;99.90
23475;DHT22;11910;52.086;21.066;2023-01-09T04:10:28;4.60;99.90
23475;DHT22;11910;52.086;21.066;2023-01-09T04:12:53;4.60;99.90
23475;DHT22;11910;52.086;21.066;2023-01-09T04:15:19;4.60;99.90
23475;DHT22;11910;52.086;21.066;2023-01-09T04:17:44;4.60;99.90
23475;DHT22;11910;52.086;21.066;2023-01-09T04:20:10;4.60;99.90
23475;DHT22;11910;52.086;21.066;2023-01-09T04:22:36;4.60;99.90
23475;DHT22;11910;52.086;21.066;2023-01-09T04:25:02;4.60;99.90
23475;DHT22;11910;52.086;21.066;2023-01-09T04:27:28;4.60;99.90
23475;DHT22;11910;52.086;21.066;2023-01-09T04:29:54;4.60;99.90
23475;DHT22;11910;52.086;21.066;2023-01-09T04:32:20;4.60;99.90
23475;DHT22;11910;52.086;21.066;2023-01-09T04:34:45;4.60;99.90
23475;DHT22;11910;52.086;21.066;2023-01-09T04:37:11;4.60;99.90
23475;DHT22;11910;52.086;21.066;2023-01-09T04:39:36;4.60;99.90
23475;DHT22;11910;52.086;21.066;2023-01-09T04:42:02;4.60;99.90
23475;DHT22;11910;52.086;21.066;2023-01-09T04:44:28;4.60;99.90
23475;DHT22;11910;52.086;21.066;2023-01-09T04:46:55;4.60;99.90
23475;DHT22;11910;52.086;21.066;2023-01-09T04:49:22;4.60;99.90
23475;DHT22;11910;52.086;21.066;2023-01-09T04:51:48;4.60;99.90
23475;DHT22;11910;52.086;21.066;2023-01-09T04:54:13;4.70;99.90
23475;DHT22;11910;52.086;21.066;2023-01-09T04:56:39;4.70;99.90
23475;DHT22;11910;52.086;21.066;2023-01-09T04:59:05;4.70;99.90
23475;DHT22;11910;52.086;21.066;2023-01-09T05:01:44;4.70;99.90
23475;DHT22;11910;52.086;21.066;2023-01-09T05:04:09;4.70;99.90
23475;DHT22;11910;52.086;21.066;2023-01-09T05:06:35;4.80;99.90
23475;DHT22;11910;52.086;21.066;2023-01-09T05:09:01;4.80;99.90
23475;DHT22;11910;52.086;21.066;2023-01-09T05:11:27;4.80;99.90
23475;DHT22;11910;52.086;21.066;2023-01-09T05:13:53;4.90;99.90
23475;DHT22;11910;52.086;21.066;2023-01-09T05:16:20;4.80;99.90
23475;DHT22;11910;52.086;21.066;2023-01-09T05:18:45;4.90;99.90
23475;DHT22;11910;52.086;21.066;2023-01-09T05:21:11;4.90;99.90
23475;DHT22;11910;52.086;21.066;2023-01-09T05:23:37;4.90;99.90
23475;DHT22;11910;52.086;21.066;2023-01-09T05:26:02;4.90;99.90
23475;DHT22;11910;52.086;21.066;2023-01-09T05:28:29;4.90;99.90
23475;DHT22;11910;52.086;21.066;2023-01-09T05:30:55;4.90;99.90
23475;DHT22;11910;52.086;21.066;2023-01-09T05:33:21;4.90;99.90
23475;DHT22;11910;52.086;21.066;2023-01-09T05:35:48;4.90;99.90
23475;DHT22;11910;52.086;21.066;2023-01-09T05:38:14;4.90;99.90
23475;DHT22;11910;52.086;21.066;2023-01-09T05:40:39;4.90;99.90
23475;DHT22;11910;52.086;21.066;2023-01-09T05:43:05;4.90;99.90
23475;DHT22;11910;52.086;21.066;2023-01-09T05:45:31;4.90;99.90
23475;DHT22;11910;52.086;21.066;2023-01-09T05:47:56;4.90;99.90
23475;DHT22;11910;52.086;21.066;2023-01-09T05:50:22;4.90;99.90
23475;DHT22;11910;52.086;21.066;2023-01-09T05:52:47;4.90;99.90
23475;DHT22;11910;52.086;21.066;2023-01-09T05:55:14;4.80;99.90
23475;DHT22;11910;52.086;21.066;2023-01-09T05:57:40;4.80;99.90
23475;DHT22;11910;52.086;21.066;2023-01-09T06:00:06;4.80;99.90
23475;DHT22;11910;52.086;21.066;2023-01-09T06:02:32;4.70;99.90
23475;DHT22;11910;52.086;21.066;2023-01-09T06:04:58;4.70;99.90
23475;DHT22;11910;52.086;21.066;2023-01-09T06:07:23;4.70;99.90
23475;DHT22;11910;52.086;21.066;2023-01-09T06:09:49;4.70;99.90
23475;DHT22;11910;52.086;21.066;2023-01-09T06:12:14;4.70;99.90
23475;DHT22;11910;52.086;21.066;2023-01-09T06:14:40;4.70;99.90
23475;DHT22;11910;52.086;21.066;2023-01-09T06:17:05;4.70;99.90
23475;DHT22;11910;52.086;21.066;2023-01-09T06:19:31;4.60;99.90
23475;DHT22;11910;52.086;21.066;2023-01-09T06:21:57;4.60;99.90
23475;DHT22;11910;52.086;21.066;2023-01-09T06:24:22;4.60;99.90
23475;DHT22;11910;52.086;21.066;2023-01-09T06:26:48;4.60;99.90
23475;DHT22;11910;52.086;21.066;2023-01-09T06:29:14;4.60;99.90
23475;DHT22;11910;52.086;21.066;2023-01-09T06:31:39;4.60;99.90
23475;DHT22;11910;52.086;21.066;2023-01-09T06:34:05;4.70;99.90
23475;DHT22;11910;52.086;21.066;2023-01-09T06:36:30;4.70;99.90
23475;DHT22;11910;52.086;21.066;2023-01-09T06:38:56;4.70;99.90
23475;DHT22;11910;52.086;21.066;2023-01-09T06:41:22;4.70;99.90
23475;DHT22;11910;52.086;21.066;2023-01-09T06:43:47;4.70;99.90
23475;DHT22;11910;52.086;21.066;2023-01-09T06:46:13;4.70;99.90
23475;DHT22;11910;52.086;21.066;2023-01-09T06:48:38;4.70;99.90
23475;DHT22;11910;52.086;21.066;2023-01-09T06:51:04;4.70;99.90
23475;DHT22;11910;52.086;21.066;2023-01-09T06:53:30;4.60;99.90
23475;DHT22;11910;52.086;21.066;2023-01-09T06:55:57;4.60;99.90
23475;DHT22;11910;52.086;21.066;2023-01-09T06:58:22;4.60;99.90
23475;DHT22;11910;52.086;21.066;2023-01-09T07:00:48;4.50;99.90
23475;DHT22;11910;52.086;21.066;2023-01-09T07:03:14;4.50;99.90
23475;DHT22;11910;52.086;21.066;2023-01-09T07:05:44;4.50;99.90
23475;DHT22;11910;52.086;21.066;2023-01-09T07:08:10;4.50;99.90
23475;DHT22;11910;52.086;21.066;2023-01-09T07:10:36;4.50;99.90
23475;DHT22;11910;52.086;21.066;2023-01-09T07:13:01;4.50;99.90
23475;DHT22;11910;52.086;21.066;2023-01-09T07:15:27;4.50;99.90
23475;DHT22;11910;52.086;21.066;2023-01-09T07:17:53;4.50;99.90
23475;DHT22;11910;52.086;21.066;2023-01-09T07:20:19;4.50;99.90
23475;DHT22;11910;52.086;21.066;2023-01-09T07:22:45;4.50;99.90
23475;DHT22;11910;52.086;21.066;2023-01-09T07:25:11;4.50;99.90
23475;DHT22;11910;52.086;21.066;2023-01-09T07:27:37;4.50;99.90
23475;DHT22;11910;52.086;21.066;2023-01-09T07:30:03;4.50;99.90
23475;DHT22;11910;52.086;21.066;2023-01-09T07:32:30;4.50;99.90
23475;DHT22;11910;52.086;21.066;2023-01-09T07:34:55;4.60;99.90
23475;DHT22;11910;52.086;21.066;2023-01-09T07:37:21;4.60;99.90
23475;DHT22;11910;52.086;21.066;2023-01-09T07:39:46;4.60;99.90
23475;DHT22;11910;52.086;21.066;2023-01-09T07:42:12;4.60;99.90
23475;DHT22;11910;52.086;21.066;2023-01-09T07:44:38;4.60;99.90
23475;DHT22;11910;52.086;21.066;2023-01-09T07:47:03;4.60;99.90
23475;DHT22;11910;52.086;21.066;2023-01-09T07:49:29;4.60;99.90
23475;DHT22;11910;52.086;21.066;2023-01-09T07:51:55;4.60;99.90
23475;DHT22;11910;52.086;21.066;2023-01-09T07:54:30;4.70;99.90
23475;DHT22;11910;52.086;21.066;2023-01-09T07:56:56;4.70;99.90
23475;DHT22;11910;52.086;21.066;2023-01-09T07:59:21;4.70;99.90
23475;DHT22;11910;52.086;21.066;2023-01-09T08:01:47;4.80;99.90
23475;DHT22;11910;52.086;21.066;2023-01-09T08:04:13;4.80;99.90
23475;DHT22;11910;52.086;21.066;2023-01-09T08:06:38;4.90;99.90
23475;DHT22;11910;52.086;21.066;2023-01-09T08:09:04;5.00;99.90
23475;DHT22;11910;52.086;21.066;2023-01-09T08:11:30;5.00;99.90
23475;DHT22;11910;52.086;21.066;2023-01-09T08:13:56;5.10;99.90
23475;DHT22;11910;52.086;21.066;2023-01-09T08:16:33;5.20;99.90
23475;DHT22;11910;52.086;21.066;2023-01-09T08:18:59;5.20;99.90
23475;DHT22;11910;52.086;21.066;2023-01-09T08:21:30;5.30;99.90
23475;DHT22;11910;52.086;21.066;2023-01-09T08:23:55;5.40;99.90
23475;DHT22;11910;52.086;21.066;2023-01-09T08:26:21;5.40;99.90
23475;DHT22;11910;52.086;21.066;2023-01-09T08:28:47;5.40;99.90
23475;DHT22;11910;52.086;21.066;2023-01-09T08:31:13;5.40;99.90
23475;DHT22;11910;52.086;21.066;2023-01-09T08:33:39;5.50;99.90
23475;DHT22;11910;52.086;21.066;2023-01-09T08:36:05;5.50;99.90
23475;DHT22;11910;52.086;21.066;2023-01-09T08:38:30;5.50;99.90
23475;DHT22;11910;52.086;21.066;2023-01-09T08:40:56;5.50;99.90
23475;DHT22;11910;52.086;21.066;2023-01-09T08:43:21;5.40;99.90
23475;DHT22;11910;52.086;21.066;2023-01-09T08:46:16;5.50;99.90
23475;DHT22;11910;52.086;21.066;2023-01-09T08:49:02;5.50;99.90
23475;DHT22;11910;52.086;21.066;2023-01-09T08:51:27;5.50;99.90
23475;DHT22;11910;52.086;21.066;2023-01-09T08:53:53;5.50;99.90
23475;DHT22;11910;52.086;21.066;2023-01-09T08:56:18;5.50;99.90
23475;DHT22;11910;52.086;21.066;2023-01-09T08:58:44;5.50;99.90
23475;DHT22;11910;52.086;21.066;2023-01-09T09:01:12;5.50;99.90
23475;DHT22;11910;52.086;21.066;2023-01-09T09:03:37;5.50;99.90
23475;DHT22;11910;52.086;21.066;2023-01-09T09:06:03;5.50;99.90
23475;DHT22;11910;52.086;21.066;2023-01-09T09:08:31;5.60;99.90
23475;DHT22;11910;52.086;21.066;2023-01-09T09:10:57;5.60;99.90
23475;DHT22;11910;52.086;21.066;2023-01-09T09:13:28;5.60;99.90
23475;DHT22;11910;52.086;21.066;2023-01-09T09:15:53;5.70;99.90
23475;DHT22;11910;52.086;21.066;2023-01-09T09:18:24;5.80;99.90
23475;DHT22;11910;52.086;21.066;2023-01-09T09:20:49;5.80;99.90
23475;DHT22;11910;52.086;21.066;2023-01-09T09:23:15;5.80;99.90
23475;DHT22;11910;52.086;21.066;2023-01-09T09:25:41;5.80;99.90
23475;DHT22;11910;52.086;21.066;2023-01-09T09:28:06;5.80;99.90
23475;DHT22;11910;52.086;21.066;2023-01-09T09:30:32;5.90;99.90
23475;DHT22;11910;52.086;21.066;2023-01-09T09:32:58;5.90;99.90
23475;DHT22;11910;52.086;21.066;2023-01-09T09:35:23;5.90;99.90
23475;DHT22;11910;52.086;21.066;2023-01-09T09:38:00;5.90;99.90
23475;DHT22;11910;52.086;21.066;2023-01-09T09:40:45;5.90;99.90
23475;DHT22;11910;52.086;21.066;2023-01-09T09:49:11;6.00;99.90
23475;DHT22;11910;52.086;21.066;2023-01-09T09:54:32;6.10;99.90
23475;DHT22;11910;52.086;21.066;2023-01-09T09:57:01;6.10;99.90
23475;DHT22;11910;52.086;21.066;2023-01-09T09:59:35;6.20;99.90
23475;DHT22;11910;52.086;21.066;2023-01-09T10:04:38;6.20;99.90
23475;DHT22;11910;52.086;21.066;2023-01-09T10:07:12;6.20;99.90
23475;DHT22;11910;52.086;21.066;2023-01-09T10:12:31;6.20;99.90
23475;DHT22;11910;52.086;21.066;2023-01-09T10:15:15;6.20;99.90
23475;DHT22;11910;52.086;21.066;2023-01-09T10:26:01;6.00;99.90
23475;DHT22;11910;52.086;21.066;2023-01-09T10:34:39;5.90;99.90
23475;DHT22;11910;52.086;21.066;2023-01-09T10:37:17;5.90;99.90
23475;DHT22;11910;52.086;21.066;2023-01-09T10:39:56;5.90;99.90
23475;DHT22;11910;52.086;21.066;2023-01-09T10:42:48;5.90;99.90
23475;DHT22;11910;52.086;21.066;2023-01-09T10:48:10;5.90;99.90
23475;DHT22;11910;52.086;21.066;2023-01-09T10:50:40;5.90;99.90
23475;DHT22;11910;52.086;21.066;2023-01-09T10:53:26;5.90;99.90
23475;DHT22;11910;52.086;21.066;2023-01-09T10:55:56;5.80;99.90
23475;DHT22;11910;52.086;21.066;2023-01-09T10:58:24;5.90;99.90
23475;DHT22;11910;52.086;21.066;2023-01-09T11:00:50;5.90;99.90
23475;DHT22;11910;52.086;21.066;2023-01-09T11:03:20;5.90;99.90
23475;DHT22;11910;52.086;21.066;2023-01-09T11:05:51;5.90;99.90
23475;DHT22;11910;52.086;21.066;2023-01-09T11:08:39;6.00;99.90
23475;DHT22;11910;52.086;21.066;2023-01-09T11:11:07;6.00;99.90
23475;DHT22;11910;52.086;21.066;2023-01-09T11:13:35;6.00;99.90
23475;DHT22;11910;52.086;21.066;2023-01-09T11:18:48;6.10;99.90
23475;DHT22;11910;52.086;21.066;2023-01-09T11:26:52;6.20;99.90
23475;DHT22;11910;52.086;21.066;2023-01-09T11:29:18;6.10;99.90
23475;DHT22;11910;52.086;21.066;2023-01-09T11:31:53;6.10;99.90
23475;DHT22;11910;52.086;21.066;2023-01-09T11:34:33;6.20;99.90
23475;DHT22;11910;52.086;21.066;2023-01-09T11:37:06;6.20;99.90
23475;DHT22;11910;52.086;21.066;2023-01-09T11:39:35;6.20;99.90
23475;DHT22;11910;52.086;21.066;2023-01-09T11:42:08;6.20;99.90
23475;DHT22;11910;52.086;21.066;2023-01-09T11:44:44;6.10;99.90
23475;DHT22;11910;52.086;21.066;2023-01-09T11:47:37;6.10;99.90
23475;DHT22;11910;52.086;21.066;2023-01-09T11:52:45;6.20;99.90
23475;DHT22;11910;52.086;21.066;2023-01-09T11:55:20;6.20;99.90
23475;DHT22;11910;52.086;21.066;2023-01-09T11:57:45;6.20;99.90
23475;DHT22;11910;52.086;21.066;2023-01-09T12:00:38;6.20;99.90
23475;DHT22;11910;52.086;21.066;2023-01-09T12:06:02;6.20;99.90
23475;DHT22;11910;52.086;21.066;2023-01-09T12:11:26;6.30;99.90
23475;DHT22;11910;52.086;21.066;2023-01-09T12:17:02;6.30;99.90
23475;DHT22;11910;52.086;21.066;2023-01-09T12:19:57;6.30;99.90
23475;DHT22;11910;52.086;21.066;2023-01-09T12:22:55;6.40;99.90
23475;DHT22;11910;52.086;21.066;2023-01-09T12:25:39;6.40;99.90
23475;DHT22;11910;52.086;21.066;2023-01-09T12:47:08;6.50;99.90
23475;DHT22;11910;52.086;21.066;2023-01-09T12:52:30;6.60;99.90
23475;DHT22;11910;52.086;21.066;2023-01-09T12:55:21;6.60;99.90
23475;DHT22;11910;52.086;21.066;2023-01-09T12:57:51;6.60;99.90
23475;DHT22;11910;52.086;21.066;2023-01-09T13:00:32;6.60;99.90
23475;DHT22;11910;52.086;21.066;2023-01-09T13:03:16;6.60;99.90
23475;DHT22;11910;52.086;21.066;2023-01-09T13:05:50;6.60;99.90
23475;DHT22;11910;52.086;21.066;2023-01-09T13:10:52;6.70;99.90
23475;DHT22;11910;52.086;21.066;2023-01-09T13:16:29;6.70;99.90
23475;DHT22;11910;52.086;21.066;2023-01-09T13:19:13;6.70;99.90
23475;DHT22;11910;52.086;21.066;2023-01-09T13:21:41;6.70;99.90
23475;DHT22;11910;52.086;21.066;2023-01-09T13:26:44;6.70;99.90
23475;DHT22;11910;52.086;21.066;2023-01-09T13:35:23;6.70;99.90
23475;DHT22;11910;52.086;21.066;2023-01-09T13:37:52;6.70;99.90
23475;DHT22;11910;52.086;21.066;2023-01-09T13:43:02;6.70;99.90
23475;DHT22;11910;52.086;21.066;2023-01-09T13:45:31;6.70;99.90
23475;DHT22;11910;52.086;21.066;2023-01-09T13:50:47;6.70;99.90
23475;DHT22;11910;52.086;21.066;2023-01-09T13:58:24;6.70;99.90
23475;DHT22;11910;52.086;21.066;2023-01-09T14:00:55;6.70;99.90
23475;DHT22;11910;52.086;21.066;2023-01-09T14:03:31;6.70;99.90
23475;DHT22;11910;52.086;21.066;2023-01-09T14:08:25;6.70;99.90
23475;DHT22;11910;52.086;21.066;2023-01-09T14:10:55;6.70;99.90
23475;DHT22;11910;52.086;21.066;2023-01-09T14:13:43;6.70;99.90
23475;DHT22;11910;52.086;21.066;2023-01-09T14:16:24;6.70;99.90
23475;DHT22;11910;52.086;21.066;2023-01-09T14:18:56;6.70;99.90
23475;DHT22;11910;52.086;21.066;2023-01-09T14:21:27;6.70;99.90
23475;DHT22;11910;52.086;21.066;2023-01-09T14:24:09;6.70;99.90
23475;DHT22;11910;52.086;21.066;2023-01-09T14:26:45;6.70;99.90
23475;DHT22;11910;52.086;21.066;2023-01-09T14:37:33;6.80;99.90
23475;DHT22;11910;52.086;21.066;2023-01-09T14:40:01;6.80;99.90
23475;DHT22;11910;52.086;21.066;2023-01-09T14:42:30;6.80;99.90
23475;DHT22;11910;52.086;21.066;2023-01-09T14:45:05;6.80;99.90
23475;DHT22;11910;52.086;21.066;2023-01-09T14:47:53;6.80;99.90
23475;DHT22;11910;52.086;21.066;2023-01-09T14:53:30;6.90;99.90
23475;DHT22;11910;52.086;21.066;2023-01-09T14:55:59;6.90;99.90
23475;DHT22;11910;52.086;21.066;2023-01-09T15:01:05;6.90;99.90
23475;DHT22;11910;52.086;21.066;2023-01-09T15:06:21;6.90;99.90
23475;DHT22;11910;52.086;21.066;2023-01-09T15:08:57;6.90;99.90
23475;DHT22;11910;52.086;21.066;2023-01-09T15:11:27;7.00;99.90
23475;DHT22;11910;52.086;21.066;2023-01-09T15:13:59;7.00;99.90
23475;DHT22;11910;52.086;21.066;2023-01-09T15:16:26;7.00;99.90
23475;DHT22;11910;52.086;21.066;2023-01-09T15:18:59;7.10;99.90
23475;DHT22;11910;52.086;21.066;2023-01-09T15:21:27;7.10;99.90
23475;DHT22;11910;52.086;21.066;2023-01-09T15:24:22;7.10;99.90
23475;DHT22;11910;52.086;21.066;2023-01-09T15:26:57;7.10;99.90
23475;DHT22;11910;52.086;21.066;2023-01-09T15:29:24;7.10;99.90
23475;DHT22;11910;52.086;21.066;2023-01-09T15:31:54;7.10;99.90
23475;DHT22;11910;52.086;21.066;2023-01-09T15:34:22;7.10;99.90
23475;DHT22;11910;52.086;21.066;2023-01-09T15:36:51;7.20;99.90
23475;DHT22;11910;52.086;21.066;2023-01-09T15:39:27;7.20;99.90
23475;DHT22;11910;52.086;21.066;2023-01-09T15:42:01;7.20;99.90
23475;DHT22;11910;52.086;21.066;2023-01-09T15:44:47;7.20;99.90
23475;DHT22;11910;52.086;21.066;2023-01-09T15:47:16;7.30;99.90
23475;DHT22;11910;52.086;21.066;2023-01-09T15:49:45;7.30;99.90
23475;DHT22;11910;52.086;21.066;2023-01-09T15:52:15;7.20;99.90
23475;DHT22;11910;52.086;21.066;2023-01-09T15:54:43;7.30;99.90
23475;DHT22;11910;52.086;21.066;2023-01-09T15:59:54;7.30;99.90
23475;DHT22;11910;52.086;21.066;2023-01-09T16:02:21;7.30;99.90
23475;DHT22;11910;52.086;21.066;2023-01-09T16:05:16;7.30;99.90
23475;DHT22;11910;52.086;21.066;2023-01-09T16:07:46;7.40;99.90
23475;DHT22;11910;52.086;21.066;2023-01-09T16:10:26;7.40;99.90
23475;DHT22;11910;52.086;21.066;2023-01-09T16:13:02;7.40;99.90
23475;DHT22;11910;52.086;21.066;2023-01-09T16:15:33;7.40;99.90
23475;DHT22;11910;52.086;21.066;2023-01-09T16:20:40;7.40;99.90
23475;DHT22;11910;52.086;21.066;2023-01-09T16:25:47;7.40;99.90
23475;DHT22;11910;52.086;21.066;2023-01-09T16:28:18;7.40;99.90
23475;DHT22;11910;52.086;21.066;2023-01-09T16:31:04;7.50;99.90
23475;DHT22;11910;52.086;21.066;2023-01-09T16:33:32;7.40;99.90
23475;DHT22;11910;52.086;21.066;2023-01-09T16:35:59;7.50;99.90
23475;DHT22;11910;52.086;21.066;2023-01-09T16:38:25;7.50;99.90
23475;DHT22;11910;52.086;21.066;2023-01-09T16:43:43;7.50;99.90
23475;DHT22;11910;52.086;21.066;2023-01-09T16:46:09;7.50;99.90
23475;DHT22;11910;52.086;21.066;2023-01-09T16:48:37;7.50;99.90
23475;DHT22;11910;52.086;21.066;2023-01-09T16:51:04;7.50;99.90
23475;DHT22;11910;52.086;21.066;2023-01-09T16:53:29;7.50;99.90
23475;DHT22;11910;52.086;21.066;2023-01-09T16:55:57;7.50;99.90
23475;DHT22;11910;52.086;21.066;2023-01-09T16:58:28;7.50;99.90
23475;DHT22;11910;52.086;21.066;2023-01-09T17:00:55;7.50;99.90
23475;DHT22;11910;52.086;21.066;2023-01-09T17:03:21;7.50;99.90
23475;DHT22;11910;52.086;21.066;2023-01-09T17:05:52;7.60;99.90
23475;DHT22;11910;52.086;21.066;2023-01-09T17:08:26;7.60;99.90
23475;DHT22;11910;52.086;21.066;2023-01-09T17:10:53;7.60;99.90
23475;DHT22;11910;52.086;21.066;2023-01-09T17:13:19;7.60;99.90
23475;DHT22;11910;52.086;21.066;2023-01-09T17:15:45;7.60;99.90
23475;DHT22;11910;52.086;21.066;2023-01-09T17:18:16;7.60;99.90
23475;DHT22;11910;52.086;21.066;2023-01-09T17:20:43;7.60;99.90
23475;DHT22;11910;52.086;21.066;2023-01-09T17:23:09;7.60;99.90
23475;DHT22;11910;52.086;21.066;2023-01-09T17:25:35;7.60;99.90
23475;DHT22;11910;52.086;21.066;2023-01-09T17:28:19;7.60;99.90
23475;DHT22;11910;52.086;21.066;2023-01-09T17:30:59;7.60;99.90
23475;DHT22;11910;52.086;21.066;2023-01-09T17:33:25;7.60;99.90
23475;DHT22;11910;52.086;21.066;2023-01-09T17:35:51;7.60;99.90
23475;DHT22;11910;52.086;21.066;2023-01-09T17:38:17;7.60;99.90
23475;DHT22;11910;52.086;21.066;2023-01-09T17:40:43;7.60;99.90
23475;DHT22;11910;52.086;21.066;2023-01-09T17:43:08;7.70;99.90
23475;DHT22;11910;52.086;21.066;2023-01-09T17:45:36;7.70;99.90
23475;DHT22;11910;52.086;21.066;2023-01-09T17:48:02;7.70;99.90
23475;DHT22;11910;52.086;21.066;2023-01-09T17:50:27;7.70;99.90
23475;DHT22;11910;52.086;21.066;2023-01-09T17:52:58;7.70;99.90
23475;DHT22;11910;52.086;21.066;2023-01-09T17:55:23;7.70;99.90
23475;DHT22;11910;52.086;21.066;2023-01-09T17:57:49;7.70;99.90
23475;DHT22;11910;52.086;21.066;2023-01-09T18:00:26;7.70;99.90
23475;DHT22;11910;52.086;21.066;2023-01-09T18:02:53;7.70;99.90
23475;DHT22;11910;52.086;21.066;2023-01-09T18:05:20;7.70;99.90
23475;DHT22;11910;52.086;21.066;2023-01-09T18:07:46;7.60;99.90
23475;DHT22;11910;52.086;21.066;2023-01-09T18:10:16;7.60;99.90
23475;DHT22;11910;52.086;21.066;2023-01-09T18:12:45;7.60;99.90
23475;DHT22;11910;52.086;21.066;2023-01-09T18:15:11;7.60;99.90
23475;DHT22;11910;52.086;21.066;2023-01-09T18:17:36;7.60;99.90
23475;DHT22;11910;52.086;21.066;2023-01-09T18:20:02;7.60;99.90